createdAt,value
2018-06-18T00:00:07.392Z,21.5
2018-06-18T00:01:12.392Z,21.5
2018-06-18T00:02:16.972Z,21.5
2018-06-18T00:03:22.425Z,21.4
2018-06-18T00:04:28.359Z,21.4
2018-06-18T00:05:33.501Z,21.4
2018-06-18T00:06:39.089Z,21.4
2018-06-18T00:07:43.969Z,21.4
2018-06-18T00:08:49.113Z,21.4
2018-06-18T00:09:54.792Z,21.4
2018-06-18T00:10:59.666Z,21.4
2018-06-18T00:12:04.811Z,21.5
2018-06-18T00:13:09.642Z,21.5
2018-06-18T00:14:14.518Z,21.5
2018-06-18T00:15:19.677Z,21.5
2018-06-18T00:16:24.901Z,21.5
2018-06-18T00:17:29.479Z,21.5
2018-06-18T00:18:35.295Z,21.5
2018-06-18T00:19:40.731Z,21.5
2018-06-18T00:20:46.166Z,21.5
2018-06-18T00:21:51.968Z,21.5
2018-06-18T00:22:56.554Z,21.5
2018-06-18T00:24:01.994Z,21.5
2018-06-18T00:25:06.556Z,21.5
2018-06-18T00:26:12.015Z,21.5
2018-06-18T00:27:17.178Z,21.5
2018-06-18T00:28:22.963Z,21.5
2018-06-18T00:29:28.111Z,21.5
2018-06-18T00:30:34.067Z,21.5
2018-06-18T00:31:39.510Z,21.5
2018-06-18T00:32:44.962Z,21.5
2018-06-18T00:33:50.086Z,21.5
2018-06-18T00:34:55.246Z,21.5
2018-06-18T00:36:00.687Z,21.5
2018-06-18T00:37:06.087Z,21.5
2018-06-18T00:38:10.667Z,21.5
2018-06-18T00:39:16.099Z,21.5
2018-06-18T00:40:21.782Z,21.5
2018-06-18T00:41:26.645Z,21.5
2018-06-18T00:42:31.909Z,21.5
2018-06-18T00:43:37.053Z,21.5
2018-06-18T00:44:42.495Z,21.5
2018-06-18T00:45:48.272Z,21.5
2018-06-18T00:46:53.421Z,21.5
2018-06-18T00:47:58.847Z,21.5
2018-06-18T00:49:04.633Z,21.5
2018-06-18T00:50:09.788Z,21.5
2018-06-18T00:51:14.943Z,21.5
2018-06-18T00:52:20.719Z,21.5
2018-06-18T00:53:26.157Z,21.5
2018-06-18T00:54:31.836Z,21.5
2018-06-18T00:55:37.269Z,21.5
2018-06-18T00:56:42.456Z,21.5
2018-06-18T00:57:47.961Z,21.5
2018-06-18T00:58:53.109Z,21.5
2018-06-18T00:59:58.265Z,21.5
2018-06-18T01:01:03.976Z,21.5
2018-06-18T01:02:09.123Z,21.5
2018-06-18T01:03:14.004Z,21.5
2018-06-18T01:04:18.876Z,21.4
2018-06-18T01:05:23.459Z,21.4
2018-06-18T01:06:29.338Z,21.4
2018-06-18T01:07:34.203Z,21.4
2018-06-18T01:08:39.346Z,21.4
2018-06-18T01:09:44.716Z,21.4
2018-06-18T01:10:49.865Z,21.5
2018-06-18T01:11:54.760Z,21.5
2018-06-18T01:13:00.542Z,21.5
2018-06-18T01:14:04.876Z,21.5
2018-06-18T01:15:09.753Z,21.5
2018-06-18T01:16:14.867Z,21.5
2018-06-18T01:17:19.199Z,21.5
2018-06-18T01:18:24.361Z,21.5
2018-06-18T01:19:29.604Z,21.5
2018-06-18T01:20:34.750Z,21.5
2018-06-18T01:21:39.621Z,21.5
2018-06-18T01:22:45.070Z,21.5
2018-06-18T01:23:50.508Z,21.5
2018-06-18T01:24:55.908Z,21.5
2018-06-18T01:26:01.340Z,21.5
2018-06-18T01:27:06.216Z,21.5
2018-06-18T01:28:11.720Z,21.5
2018-06-18T01:29:16.612Z,21.5
2018-06-18T01:30:22.064Z,21.5
2018-06-18T01:31:27.012Z,21.5
2018-06-18T01:32:31.921Z,21.5
2018-06-18T01:33:37.725Z,21.5
2018-06-18T01:34:43.157Z,21.5
2018-06-18T01:35:48.596Z,21.5
2018-06-18T01:36:54.290Z,21.5
2018-06-18T01:37:59.461Z,21.5
2018-06-18T01:39:04.386Z,21.5
2018-06-18T01:40:09.555Z,21.5
2018-06-18T01:41:14.988Z,21.5
2018-06-18T01:42:20.424Z,21.5
2018-06-18T01:43:26.027Z,21.5
2018-06-18T01:44:30.896Z,21.5
2018-06-18T01:45:36.447Z,21.5
2018-06-18T01:46:41.025Z,21.5
2018-06-18T01:47:46.186Z,21.5
2018-06-18T01:48:51.459Z,21.5
2018-06-18T01:49:56.888Z,21.5
2018-06-18T01:51:02.060Z,21.5
2018-06-18T01:52:05.766Z,21.5
2018-06-18T01:53:10.919Z,21.5
2018-06-18T01:54:15.513Z,21.5
2018-06-18T01:55:21.342Z,21.5
2018-06-18T01:56:26.496Z,21.4
2018-06-18T01:57:31.910Z,21.5
2018-06-18T01:58:37.098Z,21.5
2018-06-18T01:59:41.680Z,21.5
2018-06-18T02:00:47.366Z,21.5
2018-06-18T02:01:52.266Z,21.5
2018-06-18T02:02:57.705Z,21.5
2018-06-18T02:04:02.919Z,21.4
2018-06-18T02:05:08.076Z,21.4
2018-06-18T02:06:13.505Z,21.4
2018-06-18T02:07:18.467Z,21.4
2018-06-18T02:08:23.906Z,21.4
2018-06-18T02:09:29.600Z,21.4
2018-06-18T02:10:35.046Z,21.4
2018-06-18T02:11:40.525Z,21.4
2018-06-18T02:12:45.621Z,21.4
2018-06-18T02:13:50.488Z,21.4
2018-06-18T02:14:55.928Z,21.5
2018-06-18T02:16:01.079Z,21.5
2018-06-18T02:17:05.990Z,21.5
2018-06-18T02:18:10.855Z,21.5
2018-06-18T02:19:15.881Z,21.5
2018-06-18T02:20:20.773Z,21.5
2018-06-18T02:21:26.195Z,21.5
2018-06-18T02:22:31.339Z,21.5
2018-06-18T02:23:36.205Z,21.5
2018-06-18T02:24:42.083Z,21.5
2018-06-18T02:25:47.237Z,21.5
2018-06-18T02:26:52.407Z,21.5
2018-06-18T02:27:57.991Z,21.5
2018-06-18T02:29:02.856Z,21.5
2018-06-18T02:30:07.447Z,21.5
2018-06-18T02:31:13.227Z,21.5
2018-06-18T02:32:18.098Z,21.5
2018-06-18T02:33:23.260Z,21.5
2018-06-18T02:34:29.662Z,21.5
2018-06-18T02:35:34.828Z,21.5
2018-06-18T02:36:40.658Z,21.5
2018-06-18T02:37:46.090Z,21.5
2018-06-18T02:38:51.277Z,21.5
2018-06-18T02:39:57.126Z,21.5
2018-06-18T02:41:01.991Z,21.5
2018-06-18T02:42:06.588Z,21.5
2018-06-18T02:43:12.142Z,21.5
2018-06-18T02:44:17.577Z,21.5
2018-06-18T02:45:23.028Z,21.5
2018-06-18T02:46:28.443Z,21.5
2018-06-18T02:47:33.594Z,21.5
2018-06-18T02:48:39.684Z,21.5
2018-06-18T02:49:45.127Z,21.5
2018-06-18T02:50:50.564Z,21.5
2018-06-18T02:51:55.730Z,21.5
2018-06-18T02:53:01.168Z,21.5
2018-06-18T02:54:05.773Z,21.5
2018-06-18T02:55:10.050Z,21.5
2018-06-18T02:56:15.545Z,21.5
2018-06-18T02:57:20.711Z,21.5
2018-06-18T02:58:26.178Z,21.5
2018-06-18T02:59:31.108Z,21.4
2018-06-18T03:00:36.348Z,21.5
2018-06-18T03:01:41.803Z,21.5
2018-06-18T03:02:47.252Z,21.5
2018-06-18T03:03:53.109Z,21.4
2018-06-18T03:04:58.275Z,21.3
2018-06-18T03:06:03.426Z,21.3
2018-06-18T03:07:08.383Z,21.3
2018-06-18T03:08:13.257Z,21.2
2018-06-18T03:09:18.406Z,21.2
2018-06-18T03:10:23.617Z,21.2
2018-06-18T03:11:29.102Z,21.2
2018-06-18T03:12:34.111Z,21.2
2018-06-18T03:13:39.263Z,21.2
2018-06-18T03:14:44.440Z,21.2
2018-06-18T03:15:50.005Z,21.2
2018-06-18T03:16:55.152Z,21.2
2018-06-18T03:17:59.755Z,21.2
2018-06-18T03:19:05.301Z,21.2
2018-06-18T03:20:09.906Z,21.2
2018-06-18T03:21:15.071Z,21.2
2018-06-18T03:22:20.748Z,21.2
2018-06-18T03:23:25.622Z,21.2
2018-06-18T03:24:30.846Z,21.2
2018-06-18T03:25:36.018Z,21.1
2018-06-18T03:26:41.173Z,21.1
2018-06-18T03:27:46.570Z,21.2
2018-06-18T03:28:51.723Z,21.1
2018-06-18T03:29:57.157Z,21.1
2018-06-18T03:31:02.383Z,21.1
2018-06-18T03:32:07.250Z,21.1
2018-06-18T03:33:12.125Z,21.1
2018-06-18T03:34:17.540Z,21.1
2018-06-18T03:35:22.988Z,21.1
2018-06-18T03:36:28.144Z,21.1
2018-06-18T03:37:33.348Z,21.1
2018-06-18T03:38:38.511Z,21.2
2018-06-18T03:39:44.335Z,21.2
2018-06-18T03:40:49.779Z,21.2
2018-06-18T03:41:54.932Z,21.2
2018-06-18T03:43:00.611Z,21.2
2018-06-18T03:44:05.490Z,21.3
2018-06-18T03:45:10.642Z,21.3
2018-06-18T03:46:15.207Z,21.3
2018-06-18T03:47:20.637Z,21.3
2018-06-18T03:48:26.079Z,21.3
2018-06-18T03:49:31.233Z,21.3
2018-06-18T03:50:36.668Z,21.3
2018-06-18T03:51:42.077Z,21.4
2018-06-18T03:52:47.233Z,21.4
2018-06-18T03:53:52.660Z,21.4
2018-06-18T03:54:58.165Z,21.4
2018-06-18T03:56:03.311Z,21.4
2018-06-18T03:57:07.918Z,21.4
2018-06-18T03:58:13.033Z,21.4
2018-06-18T03:59:18.192Z,21.4
2018-06-18T04:00:23.625Z,21.4
2018-06-18T04:01:43.840Z,21.4
2018-06-18T04:02:49.285Z,21.4
2018-06-18T04:03:54.965Z,21.5
2018-06-18T04:05:00.133Z,21.5
2018-06-18T04:06:05.578Z,21.5
2018-06-18T04:07:10.991Z,21.5
2018-06-18T04:08:16.147Z,21.5
2018-06-18T04:09:21.634Z,21.5
2018-06-18T04:10:27.496Z,21.5
2018-06-18T04:11:32.420Z,21.5
2018-06-18T04:12:37.271Z,21.5
2018-06-18T04:13:42.709Z,21.5
2018-06-18T04:14:48.142Z,21.5
2018-06-18T04:15:53.416Z,21.5
2018-06-18T04:16:58.844Z,21.5
2018-06-18T04:18:04.281Z,21.5
2018-06-18T04:19:10.067Z,21.5
2018-06-18T04:20:15.498Z,21.5
2018-06-18T04:21:20.656Z,21.5
2018-06-18T04:22:26.171Z,21.5
2018-06-18T04:23:31.321Z,21.5
2018-06-18T04:24:36.987Z,21.6
2018-06-18T04:25:42.467Z,21.6
2018-06-18T04:26:47.904Z,21.5
2018-06-18T04:27:53.058Z,21.6
2018-06-18T04:28:58.487Z,21.6
2018-06-18T04:30:03.643Z,21.6
2018-06-18T04:31:08.374Z,21.6
2018-06-18T04:32:13.237Z,21.6
2018-06-18T04:33:18.414Z,21.6
2018-06-18T04:34:23.814Z,21.6
2018-06-18T04:35:28.392Z,21.6
2018-06-18T04:36:32.943Z,21.6
2018-06-18T04:37:38.463Z,21.6
2018-06-18T04:38:43.759Z,21.6
2018-06-18T04:39:49.548Z,21.6
2018-06-18T04:40:54.421Z,21.6
2018-06-18T04:41:59.576Z,21.6
2018-06-18T04:43:04.596Z,21.6
2018-06-18T04:44:09.486Z,21.6
2018-06-18T04:45:14.653Z,21.6
2018-06-18T04:46:20.443Z,21.6
2018-06-18T04:47:25.594Z,21.6
2018-06-18T04:48:31.105Z,21.6
2018-06-18T04:49:36.257Z,21.7
2018-06-18T04:50:41.419Z,21.6
2018-06-18T04:51:47.003Z,21.6
2018-06-18T04:52:52.176Z,21.6
2018-06-18T04:53:57.664Z,21.7
2018-06-18T04:55:03.200Z,21.7
2018-06-18T04:56:07.788Z,21.7
2018-06-18T04:57:12.932Z,21.7
2018-06-18T04:58:18.618Z,21.7
2018-06-18T04:59:24.072Z,21.7
2018-06-18T05:00:29.358Z,21.7
2018-06-18T05:01:34.253Z,21.7
2018-06-18T05:02:39.699Z,21.7
2018-06-18T05:03:44.823Z,21.7
2018-06-18T05:04:49.980Z,21.7
2018-06-18T05:05:55.146Z,21.7
2018-06-18T05:07:00.552Z,21.7
2018-06-18T05:08:05.174Z,21.7
2018-06-18T05:09:09.761Z,21.7
2018-06-18T05:10:15.166Z,21.7
2018-06-18T05:11:20.330Z,21.7
2018-06-18T05:12:25.795Z,21.7
2018-06-18T05:13:31.225Z,21.7
2018-06-18T05:14:36.661Z,21.7
2018-06-18T05:15:42.067Z,21.7
2018-06-18T05:16:47.234Z,21.7
2018-06-18T05:17:52.666Z,21.7
2018-06-18T05:18:58.119Z,21.7
2018-06-18T05:20:03.263Z,21.7
2018-06-18T05:21:08.145Z,21.7
2018-06-18T05:22:13.839Z,21.7
2018-06-18T05:23:18.991Z,21.7
2018-06-18T05:25:44.567Z,21.8
2018-06-18T05:26:49.743Z,21.8
2018-06-18T05:27:55.533Z,21.8
2018-06-18T05:29:00.679Z,21.8
2018-06-18T05:30:04.707Z,21.8
2018-06-18T05:31:10.264Z,21.8
2018-06-18T05:32:15.710Z,21.8
2018-06-18T05:33:20.887Z,21.8
2018-06-18T05:34:26.932Z,21.8
2018-06-18T05:35:32.077Z,21.8
2018-06-18T05:36:37.858Z,21.8
2018-06-18T05:37:43.298Z,21.8
2018-06-18T05:38:48.183Z,21.8
2018-06-18T05:39:54.111Z,21.8
2018-06-18T05:40:59.539Z,21.8
2018-06-18T05:42:04.419Z,21.8
2018-06-18T05:43:09.012Z,21.8
2018-06-18T05:44:14.159Z,21.8
2018-06-18T05:45:19.345Z,21.8
2018-06-18T05:46:25.504Z,21.8
2018-06-18T05:47:30.949Z,21.8
2018-06-18T05:48:36.463Z,21.8
2018-06-18T05:49:41.897Z,21.8
2018-06-18T05:50:47.055Z,21.8
2018-06-18T05:51:52.458Z,21.8
2018-06-18T05:52:57.620Z,21.8
2018-06-18T05:54:03.089Z,21.8
2018-06-18T05:55:08.219Z,21.8
2018-06-18T05:56:13.649Z,21.8
2018-06-18T05:57:18.514Z,21.9
2018-06-18T05:58:24.033Z,21.9
2018-06-18T05:59:29.311Z,21.9
2018-06-18T06:00:34.999Z,21.9
2018-06-18T06:01:40.435Z,21.9
2018-06-18T06:02:45.624Z,21.9
2018-06-18T06:03:50.739Z,21.9
2018-06-18T06:04:56.179Z,21.9
2018-06-18T06:06:01.667Z,21.9
2018-06-18T06:07:07.014Z,21.9
2018-06-18T06:08:11.606Z,21.9
2018-06-18T06:09:17.037Z,21.9
2018-06-18T06:10:22.879Z,21.9
2018-06-18T06:11:28.326Z,21.9
2018-06-18T06:12:33.191Z,21.9
2018-06-18T06:13:38.068Z,21.9
2018-06-18T06:14:43.508Z,21.9
2018-06-18T06:15:48.727Z,21.9
2018-06-18T06:16:53.984Z,21.9
2018-06-18T06:17:59.997Z,21.9
2018-06-18T06:19:05.408Z,21.9
2018-06-18T06:20:10.840Z,21.9
2018-06-18T06:21:15.436Z,21.9
2018-06-18T06:22:21.224Z,21.9
2018-06-18T06:23:26.727Z,21.9
2018-06-18T06:24:32.218Z,21.9
2018-06-18T06:25:37.649Z,21.9
2018-06-18T06:26:42.534Z,21.9
2018-06-18T06:27:48.257Z,21.9
2018-06-18T06:28:53.709Z,21.9
2018-06-18T06:29:59.141Z,21.9
2018-06-18T06:31:04.263Z,21.9
2018-06-18T06:32:09.403Z,22
2018-06-18T06:33:14.286Z,22
2018-06-18T06:34:19.399Z,22
2018-06-18T06:35:24.262Z,22
2018-06-18T06:36:29.695Z,22
2018-06-18T06:37:34.860Z,22
2018-06-18T06:38:40.039Z,22
2018-06-18T06:39:45.462Z,22
2018-06-18T06:40:50.616Z,22
2018-06-18T06:41:56.055Z,22
2018-06-18T06:43:01.464Z,22
2018-06-18T06:44:06.362Z,22
2018-06-18T06:45:11.220Z,22
2018-06-18T06:46:16.058Z,22
2018-06-18T06:47:21.494Z,22
2018-06-18T06:48:27.124Z,22
2018-06-18T06:49:32.259Z,22
2018-06-18T06:50:37.413Z,22
2018-06-18T06:51:42.907Z,22
2018-06-18T06:52:48.062Z,22
2018-06-18T06:53:53.208Z,22
2018-06-18T06:54:58.711Z,22
2018-06-18T06:56:03.785Z,22
2018-06-18T06:57:08.662Z,22
2018-06-18T06:58:13.795Z,22
2018-06-18T06:59:18.945Z,22
2018-06-18T07:00:22.960Z,22
2018-06-18T07:01:27.269Z,22
2018-06-18T07:02:32.709Z,22
2018-06-18T07:03:38.253Z,22
2018-06-18T07:04:43.615Z,22
2018-06-18T07:05:48.492Z,22
2018-06-18T07:06:54.077Z,22
2018-06-18T07:07:59.237Z,22
2018-06-18T07:09:04.637Z,22.1
2018-06-18T07:10:09.754Z,22.1
2018-06-18T07:11:14.343Z,22
2018-06-18T07:12:19.792Z,22.1
2018-06-18T07:13:25.490Z,22.1
2018-06-18T07:14:31.753Z,22.1
2018-06-18T07:15:36.703Z,22.1
2018-06-18T07:16:42.135Z,22.1
2018-06-18T07:17:47.153Z,22.1
2018-06-18T07:18:52.266Z,22.1
2018-06-18T07:19:57.700Z,22.1
2018-06-18T07:21:03.344Z,22.1
2018-06-18T07:22:08.191Z,22.1
2018-06-18T07:23:13.379Z,22.1
2018-06-18T07:24:18.561Z,22.1
2018-06-18T07:25:24.100Z,22.1
2018-06-18T07:26:29.723Z,22.1
2018-06-18T07:27:35.116Z,22.1
2018-06-18T07:28:40.292Z,22.1
2018-06-18T07:29:45.744Z,22.1
2018-06-18T07:30:51.183Z,22.1
2018-06-18T07:31:56.532Z,22.1
2018-06-18T07:33:01.956Z,22.1
2018-06-18T07:34:07.209Z,22.1
2018-06-18T07:35:12.368Z,22.1
2018-06-18T07:36:17.532Z,22.1
2018-06-18T07:37:23.065Z,22.1
2018-06-18T07:38:28.229Z,22.1
2018-06-18T07:39:33.476Z,22.2
2018-06-18T07:40:38.635Z,22.2
2018-06-18T07:41:43.783Z,22.2
2018-06-18T07:42:49.198Z,22.2
2018-06-18T07:43:54.401Z,22.2
2018-06-18T07:44:59.697Z,22.2
2018-06-18T07:46:05.384Z,22.2
2018-06-18T07:47:10.548Z,22.1
2018-06-18T07:48:15.146Z,22.2
2018-06-18T07:49:20.285Z,22.2
2018-06-18T07:50:25.177Z,22.2
2018-06-18T07:51:31.073Z,22.2
2018-06-18T07:52:36.433Z,22.2
2018-06-18T07:53:41.614Z,22.2
2018-06-18T07:54:47.129Z,22.2
2018-06-18T07:55:52.275Z,22.2
2018-06-18T07:56:57.436Z,22.2
2018-06-18T07:58:03.358Z,22.2
2018-06-18T07:59:08.231Z,22.2
2018-06-18T08:00:13.668Z,22.2
2018-06-18T08:01:18.531Z,22.2
2018-06-18T08:02:23.878Z,22.2
2018-06-18T08:03:29.290Z,22.2
2018-06-18T08:04:34.801Z,22.2
2018-06-18T08:05:39.966Z,22.2
2018-06-18T08:06:45.375Z,22.2
2018-06-18T08:07:50.534Z,22.2
2018-06-18T08:08:55.966Z,22.2
2018-06-18T08:10:01.058Z,22.2
2018-06-18T08:11:06.025Z,22.2
2018-06-18T08:12:11.468Z,22.2
2018-06-18T08:13:16.726Z,22.2
2018-06-18T08:14:21.886Z,22.2
2018-06-18T08:15:27.005Z,22.3
2018-06-18T08:16:32.519Z,22.3
2018-06-18T08:17:37.378Z,22.3
2018-06-18T08:18:43.505Z,22.3
2018-06-18T08:19:48.663Z,22.3
2018-06-18T08:20:53.255Z,22.3
2018-06-18T08:21:58.763Z,22.3
2018-06-18T08:23:03.933Z,22.3
2018-06-18T08:24:09.094Z,22.3
2018-06-18T08:25:14.427Z,22.3
2018-06-18T08:26:19.858Z,22.3
2018-06-18T08:27:24.744Z,22.3
2018-06-18T08:28:30.140Z,22.3
2018-06-18T08:29:35.006Z,22.3
2018-06-18T08:30:40.283Z,22.3
2018-06-18T08:31:45.445Z,22.3
2018-06-18T08:32:50.302Z,22.3
2018-06-18T08:33:55.709Z,22.3
2018-06-18T08:35:00.852Z,22.3
2018-06-18T08:36:05.171Z,22.3
2018-06-18T08:37:10.291Z,22.3
2018-06-18T08:38:15.730Z,22.3
2018-06-18T08:39:21.031Z,22.3
2018-06-18T08:40:27.077Z,22.3
2018-06-18T08:41:32.241Z,22.3
2018-06-18T08:42:37.743Z,22.3
2018-06-18T08:43:43.178Z,22.3
2018-06-18T08:44:48.056Z,22.3
2018-06-18T08:45:53.522Z,22.3
2018-06-18T08:46:58.707Z,22.3
2018-06-18T08:48:03.861Z,22.3
2018-06-18T08:49:09.361Z,22.3
2018-06-18T08:50:14.253Z,22.3
2018-06-18T08:51:19.861Z,22.3
2018-06-18T08:52:25.410Z,22.4
2018-06-18T08:53:30.554Z,22.4
2018-06-18T08:54:35.955Z,22.4
2018-06-18T08:55:40.856Z,22.4
2018-06-18T08:56:46.287Z,22.4
2018-06-18T08:57:51.741Z,22.4
2018-06-18T08:58:57.105Z,22.4
2018-06-18T09:00:02.255Z,22.4
2018-06-18T09:01:07.825Z,22.4
2018-06-18T09:02:12.978Z,22.4
2018-06-18T09:03:18.169Z,22.4
2018-06-18T09:04:23.615Z,22.4
2018-06-18T09:05:27.963Z,22.4
2018-06-18T09:06:33.003Z,22.4
2018-06-18T09:07:38.772Z,22.4
2018-06-18T09:08:43.377Z,22.4
2018-06-18T09:09:48.535Z,22.4
2018-06-18T09:10:53.971Z,22.4
2018-06-18T09:11:58.578Z,22.4
2018-06-18T09:13:03.833Z,22.4
2018-06-18T09:14:09.479Z,22.4
2018-06-18T09:15:14.068Z,22.4
2018-06-18T09:16:19.751Z,22.5
2018-06-18T09:17:24.625Z,22.5
2018-06-18T09:18:29.893Z,22.5
2018-06-18T09:19:35.330Z,22.5
2018-06-18T09:20:40.802Z,22.5
2018-06-18T09:21:46.473Z,22.5
2018-06-18T09:22:51.910Z,22.5
2018-06-18T09:23:57.062Z,22.5
2018-06-18T09:25:02.604Z,22.5
2018-06-18T09:26:07.171Z,22.5
2018-06-18T09:27:12.343Z,22.5
2018-06-18T09:28:18.041Z,22.5
2018-06-18T09:29:22.916Z,22.5
2018-06-18T09:30:27.754Z,22.5
2018-06-18T09:31:32.633Z,22.5
2018-06-18T09:32:37.897Z,22.5
2018-06-18T09:33:44.341Z,22.5
2018-06-18T09:34:49.515Z,22.5
2018-06-18T09:35:54.957Z,22.5
2018-06-18T09:37:00.366Z,22.5
2018-06-18T09:38:04.957Z,22.5
2018-06-18T09:39:10.122Z,22.5
2018-06-18T09:40:15.654Z,22.5
2018-06-18T09:41:21.146Z,22.5
2018-06-18T09:42:26.770Z,22.5
2018-06-18T09:43:31.929Z,22.5
2018-06-18T09:44:37.391Z,22.5
2018-06-18T09:45:42.375Z,22.5
2018-06-18T09:46:47.245Z,22.5
2018-06-18T09:47:52.710Z,22.6
2018-06-18T09:48:58.122Z,22.6
2018-06-18T09:50:03.561Z,22.6
2018-06-18T09:51:08.451Z,22.6
2018-06-18T09:52:14.246Z,22.6
2018-06-18T09:53:19.145Z,22.6
2018-06-18T09:54:24.343Z,22.6
2018-06-18T09:55:43.993Z,22.6
2018-06-18T09:56:49.303Z,22.6
2018-06-18T09:57:54.144Z,22.6
2018-06-18T09:58:59.621Z,22.6
2018-06-18T10:00:04.520Z,22.6
2018-06-18T10:01:09.643Z,22.6
2018-06-18T10:02:14.522Z,22.6
2018-06-18T10:03:20.178Z,22.6
2018-06-18T10:04:40.608Z,22.6
2018-06-18T10:05:45.761Z,22.6
2018-06-18T10:06:50.377Z,22.6
2018-06-18T10:07:55.730Z,22.6
2018-06-18T10:09:01.171Z,22.6
2018-06-18T10:10:06.024Z,22.6
2018-06-18T10:11:11.185Z,22.6
2018-06-18T10:12:16.631Z,22.6
2018-06-18T10:13:22.157Z,22.6
2018-06-18T10:14:27.320Z,22.6
2018-06-18T10:15:32.778Z,22.6
2018-06-18T10:16:38.125Z,22.6
2018-06-18T10:17:43.769Z,22.6
2018-06-18T10:18:49.312Z,22.6
2018-06-18T10:19:54.473Z,22.7
2018-06-18T10:20:59.348Z,22.6
2018-06-18T10:22:04.614Z,22.7
2018-06-18T10:23:09.770Z,22.7
2018-06-18T10:24:14.989Z,22.7
2018-06-18T10:25:21.235Z,22.6
2018-06-18T10:26:26.379Z,22.7
2018-06-18T10:27:31.504Z,22.7
2018-06-18T10:28:36.972Z,22.7
2018-06-18T10:29:42.071Z,22.6
2018-06-18T10:30:47.216Z,22.7
2018-06-18T10:31:52.656Z,22.7
2018-06-18T10:32:58.101Z,22.7
2018-06-18T10:34:03.228Z,22.7
2018-06-18T10:35:07.831Z,22.7
2018-06-18T10:36:12.713Z,22.7
2018-06-18T10:37:17.823Z,22.7
2018-06-18T10:38:23.265Z,22.7
2018-06-18T10:39:28.955Z,22.7
2018-06-18T10:40:34.122Z,22.7
2018-06-18T10:41:39.308Z,22.7
2018-06-18T10:42:44.708Z,22.7
2018-06-18T10:43:49.858Z,22.7
2018-06-18T10:44:55.310Z,22.7
2018-06-18T10:46:00.996Z,22.7
2018-06-18T10:47:05.906Z,22.7
2018-06-18T10:48:11.690Z,22.7
2018-06-18T10:49:17.015Z,22.7
2018-06-18T10:50:22.485Z,22.7
2018-06-18T10:51:28.482Z,22.7
2018-06-18T10:52:34.122Z,22.7
2018-06-18T10:53:39.589Z,22.7
2018-06-18T10:54:45.073Z,22.7
2018-06-18T10:55:50.224Z,22.7
2018-06-18T10:56:55.476Z,22.7
2018-06-18T10:58:01.029Z,22.7
2018-06-18T10:59:05.902Z,22.7
2018-06-18T11:00:11.346Z,22.7
2018-06-18T11:01:17.167Z,22.7
2018-06-18T11:02:21.481Z,22.7
2018-06-18T11:03:26.698Z,22.7
2018-06-18T11:04:31.300Z,22.7
2018-06-18T11:05:36.816Z,22.7
2018-06-18T11:06:42.573Z,22.8
2018-06-18T11:07:47.744Z,22.8
2018-06-18T11:08:52.623Z,22.7
2018-06-18T11:09:57.876Z,22.8
2018-06-18T11:11:02.479Z,22.8
2018-06-18T11:12:07.589Z,22.8
2018-06-18T11:13:12.997Z,22.8
2018-06-18T11:14:18.183Z,22.8
2018-06-18T11:15:23.389Z,22.7
2018-06-18T11:16:29.521Z,22.7
2018-06-18T11:17:36.776Z,22.7
2018-06-18T11:18:42.206Z,22.8
2018-06-18T11:19:47.688Z,22.7
2018-06-18T11:20:52.832Z,22.8
2018-06-18T11:21:58.652Z,22.7
2018-06-18T11:23:03.796Z,22.7
2018-06-18T11:24:08.684Z,22.7
2018-06-18T11:25:14.406Z,22.7
2018-06-18T11:26:20.167Z,22.7
2018-06-18T11:27:25.987Z,22.7
2018-06-18T11:28:30.896Z,22.7
2018-06-18T11:29:36.405Z,22.8
2018-06-18T11:30:41.938Z,22.7
2018-06-18T11:31:46.543Z,22.7
2018-06-18T11:32:51.414Z,22.7
2018-06-18T11:33:56.677Z,22.7
2018-06-18T11:35:02.123Z,22.7
2018-06-18T11:36:06.997Z,22.8
2018-06-18T11:37:12.715Z,22.7
2018-06-18T11:38:18.147Z,22.8
2018-06-18T11:39:23.485Z,22.7
2018-06-18T11:40:30.590Z,22.7
2018-06-18T11:41:35.522Z,22.8
2018-06-18T11:42:41.264Z,22.7
2018-06-18T11:43:46.532Z,22.8
2018-06-18T11:44:51.523Z,22.8
2018-06-18T11:45:56.984Z,22.7
2018-06-18T11:47:02.009Z,22.7
2018-06-18T11:48:06.597Z,22.6
2018-06-18T11:49:12.312Z,22.6
2018-06-18T11:50:17.305Z,22.5
2018-06-18T11:51:23.209Z,22.5
2018-06-18T11:52:43.636Z,22.5
2018-06-18T11:53:48.581Z,22.4
2018-06-18T11:54:54.288Z,22.5
2018-06-18T11:55:59.721Z,22.4
2018-06-18T11:57:04.120Z,22.4
2018-06-18T11:58:08.967Z,22.4
2018-06-18T11:59:13.835Z,22.4
2018-06-18T12:00:19.540Z,22.3
2018-06-18T12:01:25.157Z,22.3
2018-06-18T12:02:30.705Z,22.3
2018-06-18T12:03:36.244Z,22.3
2018-06-18T12:04:41.429Z,22.3
2018-06-18T12:05:46.028Z,22.3
2018-06-18T12:06:51.935Z,22.3
2018-06-18T12:07:57.107Z,22.3
2018-06-18T12:09:01.699Z,22.3
2018-06-18T12:10:07.430Z,22.3
2018-06-18T12:11:12.302Z,22.2
2018-06-18T12:12:17.181Z,22.2
2018-06-18T12:13:22.796Z,22.2
2018-06-18T12:14:27.953Z,22.2
2018-06-18T12:15:33.093Z,22.2
2018-06-18T12:16:38.551Z,22.2
2018-06-18T12:17:44.153Z,22.1
2018-06-18T12:18:49.573Z,22.1
2018-06-18T12:19:54.735Z,22.1
2018-06-18T12:20:59.879Z,22.1
2018-06-18T12:22:04.851Z,22.1
2018-06-18T12:23:09.729Z,22.1
2018-06-18T12:24:14.882Z,22.1
2018-06-18T12:25:20.425Z,22.1
2018-06-18T12:26:25.862Z,22
2018-06-18T12:27:31.847Z,22.2
2018-06-18T12:28:37.038Z,22.1
2018-06-18T12:29:42.523Z,22.1
2018-06-18T12:30:48.213Z,22
2018-06-18T12:31:53.577Z,22.2
2018-06-18T12:32:58.725Z,22.1
2018-06-18T12:34:04.441Z,22.2
2018-06-18T12:35:09.869Z,22.3
2018-06-18T12:36:15.340Z,22.3
2018-06-18T12:37:21.234Z,22.3
2018-06-18T12:38:26.876Z,22.3
2018-06-18T12:39:32.423Z,22.3
2018-06-18T12:40:37.902Z,22.2
2018-06-18T12:41:42.950Z,22.2
2018-06-18T12:42:48.102Z,22.2
2018-06-18T12:43:53.620Z,22.2
2018-06-18T12:44:58.788Z,22.2
2018-06-18T12:46:03.621Z,22.3
2018-06-18T12:47:08.492Z,22.2
2018-06-18T12:48:13.367Z,22.2
2018-06-18T12:49:19.054Z,22.2
2018-06-18T12:50:24.231Z,22.2
2018-06-18T12:51:29.540Z,22.2
2018-06-18T12:52:34.692Z,22.2
2018-06-18T12:53:40.337Z,22.1
2018-06-18T12:54:45.496Z,22.1
2018-06-18T12:55:50.861Z,22.1
2018-06-18T12:56:56.310Z,22.1
2018-06-18T12:58:01.576Z,22
2018-06-18T12:59:06.167Z,22.1
2018-06-18T13:00:10.775Z,22.1
2018-06-18T13:01:16.431Z,22.1
2018-06-18T13:02:21.817Z,22.1
2018-06-18T13:03:27.501Z,22.1
2018-06-18T13:04:33.393Z,22.1
2018-06-18T13:05:38.834Z,22.2
2018-06-18T13:06:44.279Z,22.2
2018-06-18T13:07:49.550Z,22.2
2018-06-18T13:08:54.415Z,22.2
2018-06-18T13:09:59.847Z,22.1
2018-06-18T13:11:05.937Z,22.1
2018-06-18T13:12:11.059Z,22.1
2018-06-18T13:13:16.169Z,22.2
2018-06-18T13:14:21.801Z,22.1
2018-06-18T13:15:27.011Z,22.2
2018-06-18T13:16:31.620Z,22.1
2018-06-18T13:17:37.214Z,22.1
2018-06-18T13:18:43.059Z,22.1
2018-06-18T13:19:47.650Z,22.1
2018-06-18T13:20:52.528Z,22.1
2018-06-18T13:21:57.848Z,22.1
2018-06-18T13:23:02.722Z,22.1
2018-06-18T13:24:07.581Z,22.2
2018-06-18T13:25:12.907Z,22.1
2018-06-18T13:26:17.987Z,22.1
2018-06-18T13:27:23.451Z,22.1
2018-06-18T13:28:43.535Z,22.1
2018-06-18T13:29:48.904Z,22.1
2018-06-18T13:30:54.589Z,22.1
2018-06-18T13:31:59.905Z,22.1
2018-06-18T13:33:04.493Z,22.1
2018-06-18T13:34:09.666Z,22.1
2018-06-18T13:35:14.815Z,22.1
2018-06-18T13:36:19.673Z,22.1
2018-06-18T13:37:24.819Z,22.1
2018-06-18T13:38:30.442Z,22.1
2018-06-18T13:39:35.849Z,22
2018-06-18T13:40:41.768Z,22.1
2018-06-18T13:41:47.319Z,22.1
2018-06-18T13:42:52.439Z,22.1
2018-06-18T13:43:57.903Z,22.1
2018-06-18T13:45:02.516Z,22.1
2018-06-18T13:46:07.940Z,22.1
2018-06-18T13:47:12.592Z,22.1
2018-06-18T13:48:18.112Z,22.1
2018-06-18T13:49:23.993Z,22.1
2018-06-18T13:50:29.345Z,22.1
2018-06-18T13:51:34.836Z,22.1
2018-06-18T13:52:39.546Z,22.1
2018-06-18T13:53:45.988Z,22.1
2018-06-18T13:54:51.696Z,22.1
2018-06-18T13:55:57.136Z,22.1
2018-06-18T13:57:02.287Z,22
2018-06-18T13:58:07.425Z,21.9
2018-06-18T13:59:12.313Z,21.9
2018-06-18T14:00:17.744Z,22
2018-06-18T14:01:23.220Z,21.9
2018-06-18T14:02:28.528Z,22
2018-06-18T14:03:34.040Z,21.9
2018-06-18T14:04:39.211Z,22
2018-06-18T14:05:44.642Z,22
2018-06-18T14:06:50.055Z,22
2018-06-18T14:07:54.940Z,21.9
2018-06-18T14:08:59.807Z,21.9
2018-06-18T14:10:05.032Z,21.8
2018-06-18T14:11:10.484Z,21.9
2018-06-18T14:12:15.639Z,21.9
2018-06-18T14:13:21.041Z,22
2018-06-18T14:14:26.078Z,22
2018-06-18T14:15:31.477Z,21.8
2018-06-18T14:16:36.345Z,21.7
2018-06-18T14:17:41.229Z,21.7
2018-06-18T14:18:46.353Z,21.7
2018-06-18T14:19:51.603Z,21.7
2018-06-18T14:20:57.195Z,21.7
2018-06-18T14:22:02.603Z,21.8
2018-06-18T14:23:07.479Z,21.7
2018-06-18T14:24:12.648Z,21.7
2018-06-18T14:25:17.800Z,21.8
2018-06-18T14:26:23.296Z,21.8
2018-06-18T14:27:28.423Z,21.8
2018-06-18T14:28:33.865Z,21.7
2018-06-18T14:29:38.741Z,21.7
2018-06-18T14:30:43.580Z,21.7
2018-06-18T14:31:48.734Z,21.7
2018-06-18T14:32:53.613Z,21.7
2018-06-18T14:33:59.309Z,21.6